Time;durP1;ratioP1;P1;durP2;ratioP2;P2;SDS_P1;SDS_P2;PMS_P1;PMS_P2;Temp;Humidity;BMP_temperature;BMP_pressure;BME280_temperature;BME280_humidity;BME280_pressure;Samples;Min_cycle;Max_cycle;Signal;HPM_P1;HPM_P2
2022/09/19 00:01:52;;;;;;;31.92;12.32;;;8.70;99.90;;;;;;5036552;28;20053;-74
2022/09/19 00:04:23;;;;;;;30.45;12.45;;;8.70;99.90;;;;;;5038381;28;20475;-74
2022/09/19 00:06:53;;;;;;;35.05;12.02;;;8.70;99.90;;;;;;5038326;28;20051;-74
2022/09/19 00:09:26;;;;;;;24.65;9.65;;;8.70;99.90;;;;;;5037278;28;20052;-74
2022/09/19 00:11:55;;;;;;;21.00;8.40;;;8.60;99.90;;;;;;5021136;28;20056;-74
2022/09/19 00:14:29;;;;;;;31.20;10.80;;;8.50;99.90;;;;;;5037298;28;20044;-74
2022/09/19 00:16:59;;;;;;;26.77;9.95;;;8.50;99.90;;;;;;5038816;28;20042;-74
2022/09/19 00:19:27;;;;;;;28.90;9.20;;;8.50;99.90;;;;;;5038084;28;20061;-74
2022/09/19 00:21:57;;;;;;;23.38;9.48;;;8.50;99.90;;;;;;5037321;28;20060;-74
2022/09/19 00:27:22;;;;;;;25.90;8.95;;;8.50;99.90;;;;;;5036842;28;20064;-74
2022/09/19 00:29:51;;;;;;;37.85;12.40;;;8.50;99.90;;;;;;5038457;28;20049;-74
2022/09/19 00:32:21;;;;;;;28.73;11.50;;;8.50;99.90;;;;;;5038250;28;20053;-74
2022/09/19 00:34:52;;;;;;;24.17;10.02;;;8.50;99.90;;;;;;5036141;28;20052;-74
2022/09/19 00:37:21;;;;;;;24.50;9.90;;;8.40;99.90;;;;;;5037861;28;20049;-74
2022/09/19 00:39:49;;;;;;;22.88;9.50;;;8.40;99.90;;;;;;5020269;28;20053;-74
2022/09/19 00:42:24;;;;;;;25.20;9.55;;;8.40;99.90;;;;;;5035802;28;20057;-74
2022/09/19 00:45:14;;;;;;;26.10;9.63;;;8.40;99.90;;;;;;5037641;28;20057;-74
2022/09/19 00:47:47;;;;;;;20.38;8.50;;;9.20;99.90;;;;;;5036533;28;20049;-73
2022/09/19 00:50:24;;;;;;;49.83;20.10;;;10.10;99.90;;;;;;5036805;28;20045;-74
2022/09/19 00:52:59;;;;;;;37.03;13.80;;;8.30;99.90;;;;;;5036928;28;20053;-74
2022/09/19 00:55:27;;;;;;;15.10;7.07;;;8.30;99.90;;;;;;5035263;28;20048;-74
2022/09/19 00:58:30;;;;;;;21.00;9.05;;;8.40;99.90;;;;;;5020143;28;20046;-74
2022/09/19 01:00:59;;;;;;;25.02;9.75;;;8.40;99.90;;;;;;5032782;28;20476;-73
2022/09/19 01:03:28;;;;;;;26.98;10.55;;;8.80;99.90;;;;;;5020275;28;20091;-73
2022/09/19 01:06:34;;;;;;;21.30;10.30;;;9.00;99.90;;;;;;5036741;28;20053;-73
2022/09/19 01:09:23;;;;;;;21.23;9.43;;;8.70;99.90;;;;;;5035584;28;20065;-73
2022/09/19 01:12:26;;;;;;;21.58;8.98;;;8.80;99.90;;;;;;5020343;28;20037;-73
2022/09/19 01:14:54;;;;;;;27.27;10.52;;;8.90;99.90;;;;;;5035959;28;20049;-73
2022/09/19 01:17:48;;;;;;;18.65;7.60;;;9.00;99.90;;;;;;5019904;28;20056;-73
2022/09/19 01:20:50;;;;;;;18.70;7.20;;;9.00;99.90;;;;;;5036944;28;20049;-74
2022/09/19 01:23:31;;;;;;;22.55;7.18;;;9.10;99.90;;;;;;5019654;28;20065;-73
2022/09/19 01:26:24;;;;;;;15.98;6.80;;;9.20;99.90;;;;;;5037544;28;20061;-73
2022/09/19 01:29:00;;;;;;;18.48;6.90;;;9.20;99.90;;;;;;5034995;28;20072;-73
2022/09/19 01:31:35;;;;;;;16.45;6.85;;;9.20;99.90;;;;;;5019907;28;20460;-74
2022/09/19 01:34:11;;;;;;;22.20;7.68;;;9.70;99.90;;;;;;5035662;28;20048;-73
2022/09/19 01:37:12;;;;;;;15.43;6.05;;;9.30;99.90;;;;;;5020090;28;20479;-74
2022/09/19 01:39:46;;;;;;;23.77;8.15;;;9.30;99.90;;;;;;5014392;28;20069;-73
2022/09/19 01:42:17;;;;;;;17.00;6.75;;;9.30;99.90;;;;;;5018363;28;20045;-73
2022/09/19 01:44:44;;;;;;;18.55;7.82;;;9.30;99.90;;;;;;5036542;28;20049;-73
2022/09/19 01:47:16;;;;;;;24.92;10.40;;;9.20;99.90;;;;;;5018045;28;20052;-73
2022/09/19 01:49:54;;;;;;;21.80;7.68;;;10.50;99.90;;;;;;5019246;28;20046;-73
2022/09/19 01:52:35;;;;;;;20.15;7.07;;;9.10;99.90;;;;;;5015644;28;20057;-73
2022/09/19 01:55:52;;;;;;;17.13;6.63;;;9.10;99.90;;;;;;5014919;28;20045;-73
2022/09/19 01:58:46;;;;;;;16.60;6.95;;;9.10;99.90;;;;;;4982423;28;20130;-73
2022/09/19 02:01:20;;;;;;;22.38;7.43;;;9.00;99.90;;;;;;5031324;28;20054;-73
2022/09/19 02:04:02;;;;;;;23.73;7.80;;;9.00;99.90;;;;;;5015988;28;20046;-73
2022/09/19 02:06:46;;;;;;;26.73;9.57;;;8.90;99.90;;;;;;4999584;28;20116;-73
2022/09/19 02:09:50;;;;;;;20.73;8.15;;;9.00;99.90;;;;;;5030218;28;20042;-73
2022/09/19 02:12:22;;;;;;;16.27;6.65;;;9.00;99.90;;;;;;5032266;28;20057;-73
2022/09/19 02:14:54;;;;;;;17.42;7.50;;;9.10;99.90;;;;;;5014504;28;20050;-73
2022/09/19 02:17:44;;;;;;;21.00;8.02;;;9.10;99.90;;;;;;5031748;28;20045;-73
2022/09/19 02:20:26;;;;;;;;;;;9.20;99.90;;;;;;5015727;28;20046;-73
2022/09/19 02:22:59;;;;;;;16.10;6.80;;;9.30;99.90;;;;;;5015602;28;19933;-73
2022/09/19 02:25:32;;;;;;;21.30;7.43;;;9.30;99.90;;;;;;5015413;28;20366;-73
2022/09/19 02:28:07;;;;;;;14.63;5.25;;;9.30;99.90;;;;;;5014006;28;20046;-73
2022/09/19 02:30:36;;;;;;;12.93;4.28;;;9.30;99.90;;;;;;5015544;28;20042;-73
2022/09/19 02:33:06;;;;;;;7.95;3.45;;;9.40;99.90;;;;;;5015124;28;20046;-73
2022/09/19 02:35:47;;;;;;;12.80;4.90;;;10.80;99.90;;;;;;5013914;28;20042;-73
2022/09/19 02:38:43;;;;;;;18.17;7.25;;;9.40;99.90;;;;;;5015264;28;20042;-73
2022/09/19 02:41:37;;;;;;;16.90;6.10;;;9.40;99.90;;;;;;5014259;28;20065;-73
2022/09/19 02:44:25;;;;;;;21.15;6.78;;;9.50;99.90;;;;;;5015205;28;20349;-73
2022/09/19 02:47:05;;;;;;;17.83;5.90;;;9.50;99.90;;;;;;5014702;28;20049;-73
2022/09/19 02:49:43;;;;;;;17.52;7.07;;;9.50;99.90;;;;;;5031487;28;20057;-73
2022/09/19 02:52:32;;;;;;;23.80;7.40;;;9.60;99.90;;;;;;5014509;28;20061;-73
2022/09/19 02:55:23;;;;;;;18.90;5.85;;;9.60;99.90;;;;;;5029847;28;20064;-73
2022/09/19 02:57:57;;;;;;;21.73;7.15;;;9.60;99.90;;;;;;5014902;28;20046;-73
2022/09/19 03:00:27;;;;;;;22.17;7.38;;;9.70;99.90;;;;;;5030319;28;20053;-73
2022/09/19 03:04:11;;;;;;;23.17;7.70;;;9.70;99.90;;;;;;5014795;28;20468;-74
2022/09/19 03:05:53;;;;;;;22.05;6.25;;;9.70;99.90;;;;;;5014579;28;20468;-73
2022/09/19 03:08:24;;;;;;;14.90;6.13;;;10.30;99.90;;;;;;5013628;28;20069;-73
2022/09/19 03:10:56;;;;;;;20.38;6.72;;;9.70;99.90;;;;;;5031164;28;20045;-73
2022/09/19 03:13:38;;;;;;;17.23;6.40;;;9.70;99.90;;;;;;5030788;28;20046;-73
2022/09/19 03:16:12;;;;;;;17.95;6.78;;;9.80;99.90;;;;;;5030739;28;20045;-73
2022/09/19 03:18:45;;;;;;;21.40;6.50;;;9.80;99.90;;;;;;5030981;28;20050;-73
2022/09/19 03:21:18;;;;;;;19.70;6.50;;;9.80;99.90;;;;;;5013193;28;20041;-73
2022/09/19 03:23:49;;;;;;;19.13;6.57;;;9.80;99.90;;;;;;5013791;28;20053;-73
2022/09/19 03:26:30;;;;;;;15.82;5.22;;;9.80;99.90;;;;;;5014367;28;20046;-73
2022/09/19 03:29:01;;;;;;;11.32;4.30;;;9.80;99.90;;;;;;5013256;28;20353;-73
2022/09/19 03:31:35;;;;;;;13.30;5.28;;;9.80;99.90;;;;;;5030550;28;20412;-73
2022/09/19 03:34:07;;;;;;;16.77;5.88;;;9.90;99.90;;;;;;5013340;28;20053;-73
2022/09/19 03:36:34;;;;;;;14.98;4.90;;;10.30;99.90;;;;;;5015116;28;20378;-73
2022/09/19 03:39:03;;;;;;;14.73;4.72;;;9.90;99.90;;;;;;5014187;28;20061;-74
2022/09/19 03:41:38;;;;;;;14.75;5.72;;;9.90;99.90;;;;;;5013302;28;20049;-73
2022/09/19 03:44:07;;;;;;;13.50;4.10;;;9.90;99.90;;;;;;5014131;28;20476;-73
2022/09/19 03:46:37;;;;;;;10.82;5.20;;;10.00;99.90;;;;;;4997480;28;20057;-73
2022/09/19 03:49:04;;;;;;;13.40;4.93;;;10.90;99.90;;;;;;5012892;28;20053;-73
2022/09/19 03:51:33;;;;;;;18.67;5.55;;;10.20;99.90;;;;;;5014029;28;20049;-73
2022/09/19 03:54:03;;;;;;;27.77;8.75;;;10.10;99.90;;;;;;5012770;28;20046;-73
2022/09/19 03:56:37;;;;;;;21.92;6.65;;;10.10;99.90;;;;;;5014303;28;20376;-73
2022/09/19 03:59:07;;;;;;;17.10;6.28;;;10.10;99.90;;;;;;5014015;28;20382;-73
2022/09/19 04:01:38;;;;;;;18.15;5.65;;;10.20;99.90;;;;;;5029174;28;20117;-73
2022/09/19 04:04:06;;;;;;;19.50;5.93;;;10.20;99.90;;;;;;5014566;28;20054;-73
2022/09/19 04:06:40;;;;;;;9.00;2.80;;;10.20;99.90;;;;;;5013943;28;20050;-73
2022/09/19 04:09:09;;;;;;;7.10;2.80;;;10.20;99.90;;;;;;5012896;28;20042;-73
2022/09/19 04:11:41;;;;;;;9.23;2.55;;;10.30;99.90;;;;;;5013862;28;20046;-73
2022/09/19 04:14:09;;;;;;;12.30;3.70;;;10.30;99.90;;;;;;5012707;28;20372;-73
2022/09/19 04:16:36;;;;;;;11.73;4.50;;;10.30;99.90;;;;;;5014507;28;20053;-73
2022/09/19 04:19:09;;;;;;;18.25;5.13;;;10.30;99.90;;;;;;5013607;28;20065;-73
2022/09/19 04:21:51;;;;;;;13.27;5.10;;;10.30;99.90;;;;;;5012974;28;20377;-73
2022/09/19 04:24:42;;;;;;;14.63;4.80;;;10.40;99.90;;;;;;5030271;28;20054;-73
2022/09/19 04:27:19;;;;;;;17.55;5.15;;;10.50;99.90;;;;;;5012533;28;20259;-73
2022/09/19 04:29:49;;;;;;;12.77;4.57;;;9.50;99.90;;;;;;5014950;28;20050;-73
2022/09/19 04:32:17;;;;;;;10.75;3.92;;;10.30;99.90;;;;;;5016831;28;20053;-73
2022/09/19 04:34:49;;;;;;;6.55;2.80;;;10.40;99.90;;;;;;5016264;28;20045;-73
2022/09/19 04:37:16;;;;;;;7.60;2.75;;;10.40;99.90;;;;;;5017351;28;20045;-73
2022/09/19 04:39:51;;;;;;;8.82;2.65;;;10.40;99.90;;;;;;5017530;28;20060;-73
2022/09/19 04:42:19;;;;;;;14.32;4.80;;;10.40;99.90;;;;;;5016199;28;20064;-73
2022/09/19 04:44:46;;;;;;;33.55;12.65;;;10.40;99.90;;;;;;5017284;28;20488;-73
2022/09/19 04:47:32;;;;;;;22.25;8.65;;;10.50;99.90;;;;;;5015924;28;20050;-73
2022/09/19 04:50:01;;;;;;;26.73;9.50;;;10.50;99.90;;;;;;5018450;28;20049;-74
2022/09/19 04:52:37;;;;;;;28.40;9.15;;;10.40;99.90;;;;;;5020256;28;20041;-73
2022/09/19 04:55:06;;;;;;;19.25;7.00;;;10.50;99.90;;;;;;5015971;28;20046;-73
2022/09/19 04:57:35;;;;;;;14.48;4.95;;;10.50;99.90;;;;;;5016889;28;20053;-73
2022/09/19 05:00:10;;;;;;;17.58;3.50;;;10.50;99.90;;;;;;5016720;28;20457;-73
2022/09/19 05:02:41;;;;;;;12.60;3.28;;;10.50;99.90;;;;;;5032189;28;20045;-73
2022/09/19 05:05:09;;;;;;;16.33;4.30;;;10.60;99.90;;;;;;5017655;28;20057;-73
2022/09/19 05:07:37;;;;;;;17.02;4.88;;;10.60;99.90;;;;;;5015538;28;20050;-73
2022/09/19 05:10:08;;;;;;;11.48;4.13;;;10.60;99.90;;;;;;5016782;28;20049;-73
2022/09/19 05:12:37;;;;;;;10.90;3.60;;;10.60;99.90;;;;;;5032786;28;20050;-73
2022/09/19 05:15:06;;;;;;;11.90;4.53;;;10.60;99.90;;;;;;5015779;28;20046;-73
2022/09/19 05:17:36;;;;;;;16.77;4.90;;;10.60;99.90;;;;;;5016425;28;20042;-73
2022/09/19 05:20:05;;;;;;;13.02;4.93;;;10.70;99.90;;;;;;5033149;28;20428;-73
2022/09/19 05:22:32;;;;;;;13.88;4.50;;;10.70;99.90;;;;;;5015417;28;20050;-73
2022/09/19 05:25:03;;;;;;;11.73;3.50;;;10.70;99.90;;;;;;5016542;28;20489;-73
2022/09/19 05:27:36;;;;;;;9.68;3.65;;;10.70;99.90;;;;;;5016017;28;20045;-73
2022/09/19 05:30:06;;;;;;;19.23;4.68;;;10.70;99.90;;;;;;5032829;28;20392;-73
2022/09/19 05:32:34;;;;;;;15.02;3.97;;;10.80;99.90;;;;;;4999884;28;20362;-73
2022/09/19 05:35:07;;;;;;;13.55;3.92;;;10.80;99.90;;;;;;5015042;28;20385;-73
2022/09/19 05:38:07;;;;;;;16.15;4.45;;;10.80;99.90;;;;;;5016091;28;20062;-73
2022/09/19 05:40:58;;;;;;;16.88;4.10;;;10.80;99.90;;;;;;5015871;28;20037;-73
2022/09/19 05:43:40;;;;;;;12.27;3.47;;;10.80;99.90;;;;;;5014672;28;20046;-73
2022/09/19 05:46:08;;;;;;;11.05;2.80;;;10.80;99.90;;;;;;5015876;28;20476;-73
2022/09/19 05:48:37;;;;;;;7.47;2.38;;;10.90;99.90;;;;;;5014751;28;20487;-73
2022/09/19 05:51:06;;;;;;;8.20;2.33;;;10.90;99.90;;;;;;5015823;28;20045;-73
2022/09/19 05:53:52;;;;;;;9.27;2.63;;;10.90;99.90;;;;;;5015657;28;20491;-73
2022/09/19 05:56:41;;;;;;;8.33;2.50;;;11.20;99.90;;;;;;5015730;28;20038;-73
2022/09/19 05:59:11;;;;;;;12.68;3.45;;;10.90;99.90;;;;;;5000370;28;20038;-73
2022/09/19 06:01:41;;;;;;;12.63;3.35;;;11.50;99.90;;;;;;5015067;28;20069;-73
2022/09/19 06:04:20;;;;;;;18.90;3.50;;;11.00;99.90;;;;;;5015693;28;20050;-73
2022/09/19 06:06:48;;;;;;;18.08;4.15;;;11.00;99.90;;;;;;5015486;28;20046;-73
2022/09/19 06:09:17;;;;;;;12.40;3.58;;;11.10;99.90;;;;;;5015175;28;20117;-73
2022/09/19 06:11:44;;;;;;;12.40;3.17;;;11.10;99.90;;;;;;5015753;28;20046;-73
2022/09/19 06:14:14;;;;;;;13.52;2.70;;;11.10;99.90;;;;;;5014609;28;20049;-73
2022/09/19 06:16:44;;;;;;;14.52;2.22;;;11.20;99.90;;;;;;5015393;28;20142;-73
2022/09/19 06:19:40;;;;;;;7.95;2.50;;;11.20;99.90;;;;;;5014151;28;20112;-73
2022/09/19 06:22:29;;;;;;;8.82;2.45;;;11.20;99.90;;;;;;5007872;28;20050;-73
2022/09/19 06:24:57;;;;;;;10.32;2.20;;;11.20;99.90;;;;;;5015338;28;20042;-73
2022/09/19 06:27:25;;;;;;;14.50;2.25;;;11.50;99.90;;;;;;5014006;28;20065;-73
2022/09/19 06:29:54;;;;;;;12.60;2.42;;;11.30;99.90;;;;;;5015285;28;20388;-73
2022/09/19 06:32:21;;;;;;;10.38;2.10;;;11.30;99.90;;;;;;5015779;28;20038;-73
2022/09/19 06:35:03;;;;;;;9.63;1.90;;;11.40;99.90;;;;;;4999936;28;20460;-73
2022/09/19 06:37:33;;;;;;;10.05;2.13;;;11.40;99.90;;;;;;5015237;28;20053;-73
2022/09/19 06:40:01;;;;;;;7.95;2.30;;;11.50;99.90;;;;;;5014403;28;20046;-73
2022/09/19 06:43:03;;;;;;;10.90;2.10;;;11.50;99.90;;;;;;5015442;28;20050;-73
2022/09/19 06:45:53;;;;;;;8.18;1.80;;;11.60;99.90;;;;;;5014616;28;20468;-73
2022/09/19 06:48:43;;;;;;;10.68;2.25;;;11.60;99.90;;;;;;5013481;28;20056;-73
2022/09/19 06:51:25;;;;;;;8.23;1.83;;;11.70;99.90;;;;;;5014392;28;20054;-72
2022/09/19 06:53:52;;;;;;;13.73;2.35;;;11.70;99.90;;;;;;5012842;28;20050;-73
2022/09/19 06:56:20;;;;;;;10.32;2.17;;;11.80;99.90;;;;;;5014067;28;20038;-73
2022/09/19 06:58:48;;;;;;;15.52;2.60;;;11.80;99.90;;;;;;4997874;28;20053;-72
2022/09/19 07:01:16;;;;;;;14.20;2.38;;;11.90;99.90;;;;;;5013454;28;20050;-73
2022/09/19 07:03:45;;;;;;;9.77;2.13;;;12.00;99.90;;;;;;5014438;28;20069;-72
2022/09/19 07:06:19;;;;;;;9.48;2.10;;;12.00;99.90;;;;;;5014230;28;20052;-72
2022/09/19 07:09:07;;;;;;;11.60;2.10;;;12.10;99.90;;;;;;4996472;28;20380;-73
2022/09/19 07:11:36;;;;;;;6.75;2.20;;;12.10;99.90;;;;;;5013955;28;20045;-72
2022/09/19 07:14:05;;;;;;;12.00;2.53;;;12.20;99.90;;;;;;5013115;28;20057;-72
2022/09/19 07:16:32;;;;;;;8.25;2.60;;;12.30;99.90;;;;;;5014217;28;20049;-72
2022/09/19 07:19:02;;;;;;;16.08;2.90;;;11.50;99.90;;;;;;4997804;28;20457;-72
2022/09/19 07:21:41;;;;;;;12.73;2.80;;;12.40;99.90;;;;;;5012826;28;20037;-73
2022/09/19 07:24:17;;;;;;;8.23;2.50;;;12.50;99.90;;;;;;5013894;28;20046;-73
2022/09/19 07:27:03;;;;;;;7.90;2.03;;;12.50;99.90;;;;;;5012888;28;20057;-72
2022/09/19 07:29:32;;;;;;;15.48;2.88;;;12.60;99.90;;;;;;4997586;28;20381;-73
2022/09/19 07:32:01;;;;;;;9.82;2.60;;;12.60;99.90;;;;;;5013857;28;20045;-73
2022/09/19 07:34:32;;;;;;;10.82;2.70;;;12.70;99.90;;;;;;5013354;28;20057;-73
2022/09/19 07:37:00;;;;;;;11.88;2.80;;;12.80;99.90;;;;;;5014493;28;20148;-73
2022/09/19 07:39:28;;;;;;;11.00;2.72;;;12.80;99.90;;;;;;5014265;28;20050;-73
2022/09/19 07:42:31;;;;;;;8.52;2.60;;;12.90;99.90;;;;;;5013080;28;20045;-73
2022/09/19 07:45:17;;;;;;;8.15;2.70;;;13.00;99.90;;;;;;5014801;28;20050;-73
2022/09/19 07:48:05;;;;;;;14.50;2.83;;;13.10;99.90;;;;;;5010031;28;20484;-73
2022/09/19 07:50:43;;;;;;;9.38;2.70;;;13.10;99.90;;;;;;5013936;28;20053;-73
2022/09/19 07:53:24;;;;;;;7.78;2.70;;;13.20;99.90;;;;;;5014023;28;20346;-73
2022/09/19 07:55:55;;;;;;;8.90;2.83;;;13.20;99.90;;;;;;5012922;28;20038;-73
2022/09/19 07:58:26;;;;;;;13.13;3.00;;;13.30;99.90;;;;;;5013921;28;20046;-73
2022/09/19 08:01:01;;;;;;;11.38;3.10;;;13.30;99.90;;;;;;5012794;28;20041;-72
2022/09/19 08:03:48;;;;;;;12.07;2.65;;;13.40;99.90;;;;;;5015320;28;20484;-73
2022/09/19 08:06:22;;;;;;;17.30;2.97;;;13.50;99.90;;;;;;4999761;28;20057;-73
2022/09/19 08:08:50;;;;;;;;;;;13.60;99.90;;;;;;5017010;28;20041;-73
2022/09/19 08:11:43;;;;;;;11.27;2.70;;;13.70;99.90;;;;;;5018612;28;19921;-73
2022/09/19 08:14:11;;;;;;;12.32;3.05;;;13.70;99.90;;;;;;5017199;28;20460;-73
2022/09/19 08:16:39;;;;;;;;;;;13.80;99.90;;;;;;5018099;28;20046;-72
2022/09/19 08:19:08;;;;;;;14.00;2.88;;;13.90;99.90;;;;;;4985115;28;19929;-73
2022/09/19 08:21:36;;;;;;;;;;;13.90;99.90;;;;;;5016859;28;20049;-73
2022/09/19 08:24:05;;;;;;;10.98;2.78;;;13.80;99.90;;;;;;5017544;28;19932;-75
2022/09/19 08:26:33;;;;;;;13.23;2.60;;;14.10;99.90;;;;;;5030619;28;20050;-73
2022/09/19 08:29:02;;;;;;;9.57;2.38;;;14.20;99.90;;;;;;5035996;28;20049;-72
2022/09/19 08:31:37;;;;;;;7.03;1.77;;;14.20;99.90;;;;;;5036857;28;20049;-73
2022/09/19 08:34:04;;;;;;;9.73;1.92;;;14.30;99.90;;;;;;5036629;28;20375;-73
2022/09/19 08:36:33;;;;;;;12.80;2.60;;;14.30;99.90;;;;;;5053669;28;20041;-72
2022/09/19 08:39:02;;;;;;;13.05;2.15;;;14.40;99.70;;;;;;5036965;28;20052;-72
2022/09/19 08:42:04;;;;;;;10.63;2.58;;;14.30;99.40;;;;;;5053229;28;20037;-72
2022/09/19 08:44:35;;;;;;;11.65;1.90;;;14.50;99.60;;;;;;5036876;28;20046;-64
2022/09/19 08:47:07;;;;;;;7.45;1.83;;;14.60;99.00;;;;;;5036688;28;20052;-73
2022/09/19 08:49:46;;;;;;;8.27;1.70;;;14.70;99.20;;;;;;5038365;28;20045;-73
2022/09/19 08:52:33;;;;;;;10.05;1.60;;;14.80;98.90;;;;;;5040000;28;20045;-73
2022/09/19 08:55:04;;;;;;;10.15;1.70;;;14.90;98.40;;;;;;5056639;28;20049;-73
2022/09/19 08:57:38;;;;;;;11.48;2.28;;;15.00;97.40;;;;;;5040179;28;20396;-73
2022/09/19 09:00:19;;;;;;;8.80;1.80;;;15.10;97.70;;;;;;5040327;28;20098;-73
2022/09/19 09:03:23;;;;;;;7.25;1.50;;;15.20;97.30;;;;;;5039910;28;20371;-73
2022/09/19 09:05:56;;;;;;;10.15;1.50;;;15.30;96.90;;;;;;5036590;28;20053;-74
2022/09/19 09:08:50;;;;;;;6.65;1.38;;;15.40;95.70;;;;;;5022626;28;20356;-73
2022/09/19 09:11:40;;;;;;;8.50;1.40;;;15.40;94.20;;;;;;5040243;28;20054;-72
2022/09/19 09:14:12;;;;;;;4.70;1.17;;;15.30;94.60;;;;;;5039159;28;20463;-72
2022/09/19 09:16:45;;;;;;;11.70;1.60;;;15.20;94.60;;;;;;5039930;28;20367;-73
2022/09/19 09:19:33;;;;;;;5.18;1.20;;;15.10;94.70;;;;;;5056145;28;20052;-73
2022/09/19 09:22:12;;;;;;;;;;;15.00;94.80;;;;;;5009682;28;20075;-72
2022/09/19 09:24:51;;;;;;;5.47;1.30;;;14.90;94.50;;;;;;5022686;28;19921;-73
2022/09/19 09:27:39;;;;;;;10.57;1.30;;;14.80;94.90;;;;;;5038318;28;20371;-73
2022/09/19 09:30:17;;;;;;;6.85;1.25;;;14.70;95.00;;;;;;5039256;28;20041;-72
2022/09/19 09:33:16;;;;;;;8.75;1.10;;;14.70;94.90;;;;;;5039154;28;20052;-73
2022/09/19 09:35:47;;;;;;;6.20;1.10;;;14.60;94.90;;;;;;5021684;28;20049;-73
2022/09/19 09:38:24;;;;;;;8.55;1.30;;;14.60;94.60;;;;;;5039485;28;20047;-73
2022/09/19 09:43:56;;;;;;;5.38;0.98;;;14.60;94.30;;;;;;5055659;28;20055;-72
2022/09/19 09:46:43;;;;;;;6.43;0.95;;;14.70;94.40;;;;;;5055583;28;20049;-72
2022/09/19 09:49:12;;;;;;;6.65;0.95;;;14.60;93.80;;;;;;5037967;28;20045;-72
2022/09/19 09:51:57;;;;;;;3.72;0.80;;;14.60;93.90;;;;;;5039019;28;20099;-72
2022/09/19 09:57:51;;;;;;;4.47;0.85;;;14.60;93.60;;;;;;5055376;28;20037;-73
2022/09/19 10:03:34;;;;;;;6.40;0.88;;;14.60;93.20;;;;;;5055385;28;20052;-72
2022/09/19 10:06:29;;;;;;;4.03;0.77;;;14.70;93.30;;;;;;5038750;28;20041;-73
2022/09/19 10:09:07;;;;;;;4.78;0.93;;;14.70;93.30;;;;;;5021698;28;20068;-72
2022/09/19 10:12:14;;;;;;;10.45;1.13;;;14.70;93.10;;;;;;5022399;28;20052;-72
2022/09/19 10:15:09;;;;;;;5.88;0.90;;;14.80;93.00;;;;;;5037049;28;20048;-72
2022/09/19 10:17:49;;;;;;;6.30;1.30;;;14.90;93.00;;;;;;5055164;28;20041;-73
2022/09/19 10:20:29;;;;;;;4.07;0.70;;;14.90;92.80;;;;;;5037761;28;20356;-72
2022/09/19 10:22:59;;;;;;;7.53;1.05;;;15.00;93.00;;;;;;5038463;28;20045;-72
2022/09/19 10:25:30;;;;;;;5.20;1.30;;;15.10;92.60;;;;;;5022867;28;20045;-72
2022/09/19 10:28:15;;;;;;;6.25;1.10;;;17.00;93.00;;;;;;5036487;28;20363;-72
2022/09/19 10:31:01;;;;;;;6.43;0.93;;;15.40;92.40;;;;;;5038448;28;20053;-72
2022/09/19 10:33:52;;;;;;;4.38;1.10;;;15.60;92.30;;;;;;5038013;28;20044;-73
2022/09/19 10:36:31;;;;;;;3.08;0.80;;;15.70;92.30;;;;;;5038613;28;20044;-73
2022/09/19 10:39:13;;;;;;;5.25;0.95;;;15.80;92.30;;;;;;5022288;28;20052;-73
2022/09/19 10:41:43;;;;;;;2.17;0.70;;;15.90;91.90;;;;;;5036383;28;20372;-73
2022/09/19 10:44:22;;;;;;;8.35;0.90;;;16.00;91.60;;;;;;5022017;28;20044;-72
2022/09/19 10:47:13;;;;;;;7.55;0.82;;;16.10;91.40;;;;;;5038118;28;20456;-73
2022/09/19 10:49:51;;;;;;;5.10;1.05;;;16.20;91.30;;;;;;5054408;28;20106;-73
2022/09/19 10:52:33;;;;;;;3.53;0.93;;;16.40;91.00;;;;;;5034296;28;20341;-72
2022/09/19 10:55:22;;;;;;;3.22;0.77;;;16.40;90.30;;;;;;5033458;28;20052;-72
2022/09/19 10:58:03;;;;;;;3.28;0.73;;;16.40;90.40;;;;;;5017447;28;20053;-72
2022/09/19 11:00:51;;;;;;;4.47;0.90;;;16.50;90.00;;;;;;5033133;28;20049;-71
2022/09/19 11:03:26;;;;;;;7.90;0.80;;;16.50;90.20;;;;;;5033898;28;20066;-71
2022/09/19 11:06:08;;;;;;;3.50;0.93;;;16.60;90.10;;;;;;5034580;28;20051;-71
2022/09/19 11:08:45;;;;;;;8.82;1.08;;;17.70;90.60;;;;;;5033251;28;20049;-71
2022/09/19 11:11:37;;;;;;;3.17;1.05;;;16.70;89.50;;;;;;5019755;28;20496;-71
2022/09/19 11:14:31;;;;;;;2.55;0.75;;;16.70;89.50;;;;;;5033159;28;20045;-73
2022/09/19 11:17:18;;;;;;;4.03;0.70;;;16.80;89.20;;;;;;5034303;28;20037;-71
2022/09/19 11:20:08;;;;;;;6.15;1.30;;;16.80;88.70;;;;;;5034295;28;20052;-71
2022/09/19 11:22:58;;;;;;;8.98;1.10;;;16.90;89.70;;;;;;5033297;28;20178;-71
2022/09/19 11:25:47;;;;;;;3.85;1.10;;;16.90;89.40;;;;;;5017478;28;20056;-71
2022/09/19 11:28:17;;;;;;;;;;;17.00;89.10;;;;;;5033650;28;20375;-71
2022/09/19 11:31:24;;;;;;;5.53;1.10;;;17.10;88.80;;;;;;5034956;28;19928;-71
2022/09/19 11:34:56;;;;;;;4.87;1.00;;;17.20;88.60;;;;;;5039888;28;20060;-71
2022/09/19 11:38:05;;;;;;;5.75;1.10;;;17.30;88.40;;;;;;5019617;28;20784;-71
2022/09/19 11:41:00;;;;;;;4.55;1.00;;;17.40;88.00;;;;;;5003043;28;20068;-71
2022/09/19 11:43:44;;;;;;;4.28;1.02;;;17.50;88.40;;;;;;5034072;28;20045;-71
2022/09/19 11:46:20;;;;;;;3.88;1.00;;;17.50;87.90;;;;;;5033661;28;20045;-72
2022/09/19 11:49:17;;;;;;;2.92;1.05;;;17.50;88.20;;;;;;5032791;28;20045;-71
2022/09/19 11:52:13;;;;;;;4.70;1.15;;;17.40;87.90;;;;;;5034800;28;20049;-71
2022/09/19 11:55:02;;;;;;;4.00;0.75;;;17.40;86.60;;;;;;5012509;28;20042;-72
2022/09/19 11:57:39;;;;;;;4.22;1.00;;;17.40;87.90;;;;;;5014214;28;20045;-71
2022/09/19 12:00:14;;;;;;;2.92;0.90;;;17.30;86.90;;;;;;5014162;28;20072;-73
2022/09/19 12:02:58;;;;;;;6.90;0.95;;;17.40;88.00;;;;;;5012653;28;20050;-71
2022/09/19 12:05:56;;;;;;;6.13;1.15;;;17.60;88.30;;;;;;5013658;28;20049;-71
2022/09/19 12:09:00;;;;;;;3.97;0.90;;;17.70;85.90;;;;;;5013067;28;20372;-72
2022/09/19 12:11:55;;;;;;;5.82;1.30;;;17.70;86.60;;;;;;4997111;28;20049;-71
2022/09/19 12:14:41;;;;;;;3.03;0.98;;;17.70;86.30;;;;;;5012715;28;20061;-74
2022/09/19 12:17:28;;;;;;;3.95;1.10;;;17.60;86.40;;;;;;5013712;28;20041;-72
2022/09/19 12:20:30;;;;;;;5.00;1.25;;;17.50;86.20;;;;;;4997284;28;20053;-72
2022/09/19 12:24:52;;;;;;;3.03;0.98;;;17.50;86.00;;;;;;5013482;28;20061;-72
2022/09/19 12:25:58;;;;;;;5.60;1.10;;;17.40;86.30;;;;;;5029696;28;20056;-71
2022/09/19 12:28:33;;;;;;;5.13;1.20;;;17.40;86.60;;;;;;4996260;28;20519;-72
2022/09/19 12:31:06;;;;;;;4.03;1.27;;;17.50;87.10;;;;;;5013340;28;20116;-72
2022/09/19 12:33:48;;;;;;;2.85;0.95;;;17.70;87.10;;;;;;5013425;28;20046;-72
2022/09/19 12:36:23;;;;;;;3.85;1.20;;;17.90;86.10;;;;;;5013466;28;20495;-72
2022/09/19 12:39:05;;;;;;;5.30;1.00;;;18.20;86.70;;;;;;4997193;28;20057;-73
2022/09/19 12:42:01;;;;;;;2.92;1.02;;;18.40;85.50;;;;;;5012512;28;20050;-71
2022/09/19 12:45:05;;;;;;;4.78;1.40;;;18.60;83.60;;;;;;4996766;28;20050;-72
2022/09/19 12:47:49;;;;;;;6.68;1.40;;;18.70;84.00;;;;;;5009578;28;20065;-72
2022/09/19 12:50:32;;;;;;;3.88;0.93;;;18.90;84.10;;;;;;5029613;28;20049;-72
2022/09/19 12:53:07;;;;;;;2.97;1.07;;;19.00;83.70;;;;;;5023766;28;20064;-73
2022/09/19 12:56:15;;;;;;;2.40;1.00;;;19.10;83.50;;;;;;5035601;28;20287;-73
2022/09/19 12:58:45;;;;;;;;;;;19.20;82.60;;;;;;5020190;28;20056;-73
2022/09/19 13:01:22;;;;;;;2.65;1.00;;;19.30;83.10;;;;;;5035255;28;19932;-73
2022/09/19 13:04:05;;;;;;;3.17;1.02;;;19.50;83.00;;;;;;5037507;28;20037;-72
2022/09/19 13:06:40;;;;;;;3.53;1.08;;;19.90;81.80;;;;;;5037265;28;20476;-71
2022/09/19 13:09:24;;;;;;;5.07;1.30;;;19.90;82.20;;;;;;5036373;28;20372;-71
2022/09/19 13:12:04;;;;;;;4.22;1.17;;;20.10;90.80;;;;;;5037059;28;20050;-72
2022/09/19 13:14:43;;;;;;;6.40;1.60;;;20.10;80.80;;;;;;5035888;28;20052;-72
2022/09/19 13:25:38;;;;;;;4.15;1.10;;;20.10;81.40;;;;;;5036847;28;20052;-71
2022/09/19 13:28:18;;;;;;;4.32;1.20;;;20.40;79.40;;;;;;5035539;28;20384;-74
2022/09/19 13:30:50;;;;;;;3.80;1.10;;;20.50;79.30;;;;;;5036936;28;20053;-70
2022/09/19 13:33:28;;;;;;;3.65;1.10;;;20.60;79.80;;;;;;5035994;28;20050;-72
2022/09/19 13:36:07;;;;;;;4.60;1.20;;;20.70;78.50;;;;;;5035674;28;20045;-70
2022/09/19 13:38:50;;;;;;;4.63;1.15;;;20.70;78.10;;;;;;5036609;28;20465;-71
2022/09/19 13:41:56;;;;;;;5.70;1.40;;;20.70;91.50;;;;;;5035042;28;20052;-70
2022/09/19 13:44:44;;;;;;;4.90;1.25;;;20.70;77.40;;;;;;5030459;28;20053;-71
2022/09/19 13:47:19;;;;;;;3.67;1.20;;;20.70;77.20;;;;;;5035568;28;20085;-70
2022/09/19 13:50:31;;;;;;;5.97;1.20;;;20.80;77.60;;;;;;5036533;28;20045;-70
2022/09/19 13:53:04;;;;;;;4.20;1.50;;;20.70;76.80;;;;;;5035427;28;20081;-70
2022/09/19 13:55:35;;;;;;;5.93;1.33;;;20.70;77.60;;;;;;5034440;28;20056;-70
2022/09/19 13:58:31;;;;;;;5.07;1.48;;;20.60;78.10;;;;;;5035960;28;20464;-70
2022/09/19 14:01:10;;;;;;;6.30;1.50;;;20.70;76.90;;;;;;5035025;28;20064;-70
2022/09/19 14:03:53;;;;;;;3.90;1.25;;;20.60;77.30;;;;;;5035135;28;20048;-70
2022/09/19 14:06:29;;;;;;;6.05;1.45;;;20.70;77.70;;;;;;5036754;28;20060;-72